Grande-Entree, Canada
Current Conditions -  °F | °C
As of 6:54 AM on Thursday 27 Nov 2014 (Local Time) from CYGR Reporting Station
Light Snow Light Snow  
Wind Chill: 21°   Ceiling: 1000
Heat Index: 34°   Visibility: 6mi
Dew Point: 32°   Wind: 26mph
Humidity: 93%   Direction: 70°ENE
Pressure: 29.62"   Gusts: 46mph
Location:  47.55°N, 61.57°W
Report Text: CYGR 271054Z 07023G40KT 6SM -SNPL OVC010 01/M00 A2962 RMK SC8 /S01 AFT 10 UTC/ PRESRR SLP032
Loading
Personal Weather Stations






























Interactive Weather Map New forecast layout! Learn more

10-Day Weather Forecast

Advertisements
Track Severe Weather on mobile